Yuryuzan', Russia
Current Conditions -  °F | °C
As of 7:00 AM on Saturday 20 Dec 2014 (Local Time) from USCM Reporting Station
Broken Clouds Broken Clouds  
Wind Chill:   Ceiling: 10000
Heat Index: 19°   Visibility: 5mi
Dew Point: 16°   Wind: 9mph
Humidity: 86%   Direction: 200°SSW
Pressure: 29.94"   Gusts: NA
Location:  54.45°N, 58.46°E
Report Text: USCM 200200Z 20004MPS 8000 FEW033 BKN100 M07/M09 Q1014 TEMPO1100 SHSN BKN005 19090060 RMK QFE723
Loading
Personal Weather Stations






























Interactive Weather Map New forecast layout! Learn more

10-Day Weather Forecast

Advertisements
Track Severe Weather on mobile